Accueil
METAR-TAF:

METAR-TAF

Aéroports :

Aéroport international de Piarco

Port-d'Espagne, Trinité, Trinité-et-Tobago

latitude: 10-37N, longitude: 061-21W, altitude: 12 m

Observation

Le bulletin a été fait il y a 1 heure et 4 minutes, à 12:00 UTC
Vent 8 kt de est/sud-est
Température 27°C
Humidité 79%
Pression 1016 hPa
Visibilité: 6000 m
Quelques nuages à une hauteur de 1800 ft

METAR: TTPP 161200Z 12008KT 6000 FEW018 27/23 Q1016 NOSIG

Heure: 09:04 (13:04 UTC)

Prévision

Le bulletin a été fait il y a 3 heures et 4 minutes, à 10:00 UTC
Prévision valable du 16 à 12 UTC au 17 à 12 UTC
Vent 15 kt de est/sud-est
Visibilité 10 km ou plus
Nuages épars à une hauteur de 3000 ft
Evoluant progressivement
du 16 à 23 UTC au 17 à 01 UTC
Vent 5 kt de est
Quelques nuages à une hauteur de 1800 ft

TAF: TTPP 161000Z 1612/1712 11015KT 9999 SCT030 BECMG 1623/1701 09005KT FEW018

Observations et prévisions météorologiques de plus de 4000 aéroports (messages METAR et TAF).

Les stations disponibles sont représentées par des disques jaunes et rouges sur la carte.

Passer la souris dessus pour voir le nom de la station.

Cliquer dessus pour voir les observations et prévisions météorologiques.

Pour changer de carte: cliquez sur les boutons verts avec une croix noire pour zoomer, sur le bouton vert avec un tiret pour effectuer un zoom arrière, ou sur les flèches vertes pour les cartes adjacentes.


METAR-TAF: